createdAt,value
2023-02-28T00:00:12.642Z,94.00
2023-02-28T00:02:42.052Z,94.30
2023-02-28T00:05:12.305Z,94.40
2023-02-28T00:07:42.887Z,94.30
2023-02-28T00:10:14.060Z,94.50
2023-02-28T00:12:42.526Z,94.60
2023-02-28T00:15:12.688Z,94.70
2023-02-28T00:17:41.449Z,94.70
2023-02-28T00:20:14.574Z,94.70
2023-02-28T00:22:47.386Z,94.70
2023-02-28T00:25:18.595Z,94.80
2023-02-28T00:27:48.275Z,95.00
2023-02-28T00:30:18.496Z,95.40
2023-02-28T00:32:46.951Z,95.10
2023-02-28T00:35:16.857Z,95.20
2023-02-28T00:37:48.024Z,95.10
2023-02-28T00:40:16.137Z,95.20
2023-02-28T00:42:44.287Z,95.30
2023-02-28T00:45:13.187Z,95.40
2023-02-28T00:47:41.638Z,95.50
2023-02-28T00:50:11.479Z,95.70
2023-02-28T00:52:40.348Z,95.80
2023-02-28T00:55:10.506Z,95.80
2023-02-28T00:57:39.874Z,95.80
2023-02-28T01:00:12.488Z,95.80
2023-02-28T01:02:40.573Z,95.70
2023-02-28T01:05:12.696Z,95.60
2023-02-28T01:07:41.243Z,95.50
2023-02-28T01:10:12.880Z,95.60
2023-02-28T01:12:41.293Z,95.50
2023-02-28T01:15:12.402Z,95.60
2023-02-28T01:17:41.165Z,95.60
2023-02-28T01:20:12.342Z,95.60
2023-02-28T01:22:40.323Z,95.70
2023-02-28T01:25:11.520Z,95.80
2023-02-28T01:27:40.777Z,95.90
2023-02-28T01:30:11.262Z,96.00
2023-02-28T01:32:39.347Z,96.10
2023-02-28T01:35:08.262Z,96.20
2023-02-28T01:37:37.280Z,96.20
2023-02-28T01:42:59.684Z,96.30
2023-02-28T01:45:29.169Z,96.60
2023-02-28T01:48:07.080Z,96.70
2023-02-28T01:50:40.878Z,96.60
2023-02-28T01:53:12.972Z,96.50
2023-02-28T01:55:45.432Z,96.20
2023-02-28T01:58:15.482Z,96.40
2023-02-28T02:00:44.319Z,96.60
2023-02-28T02:03:17.427Z,96.70
2023-02-28T02:05:49.214Z,96.60
2023-02-28T02:08:20.673Z,96.30
2023-02-28T02:10:54.608Z,96.50
2023-02-28T02:13:39.819Z,96.40
2023-02-28T02:16:20.072Z,96.10
2023-02-28T02:18:52.556Z,96.30
2023-02-28T02:21:43.264Z,96.50
2023-02-28T02:24:49.932Z,96.40
2023-02-28T02:27:29.179Z,96.50
2023-02-28T02:30:23.764Z,96.60
2023-02-28T02:33:28.503Z,96.60
2023-02-28T02:36:01.578Z,96.40
2023-02-28T02:38:37.279Z,96.40
2023-02-28T02:41:15.264Z,96.30
2023-02-28T02:43:50.615Z,96.30
2023-02-28T02:46:23.528Z,96.70
2023-02-28T02:48:54.279Z,96.90
2023-02-28T02:51:25.038Z,96.60
2023-02-28T02:53:57.904Z,96.40
2023-02-28T02:56:30.737Z,96.30
2023-02-28T02:59:04.730Z,96.10
2023-02-28T03:01:33.920Z,96.30
2023-02-28T03:04:06.984Z,96.40
2023-02-28T03:06:37.049Z,96.70
2023-02-28T03:09:06.831Z,96.30
2023-02-28T03:11:37.414Z,96.40
2023-02-28T03:14:35.632Z,96.40
2023-02-28T03:17:27.502Z,96.20
2023-02-28T03:20:08.689Z,96.40
2023-02-28T03:23:00.110Z,96.40
2023-02-28T03:25:39.138Z,96.60
2023-02-28T03:28:15.886Z,96.50
2023-02-28T03:30:49.945Z,96.40
2023-02-28T03:33:24.446Z,96.10
2023-02-28T03:35:56.685Z,96.00
2023-02-28T03:38:31.782Z,96.10
2023-02-28T03:41:08.133Z,96.30
2023-02-28T03:43:40.961Z,96.70
2023-02-28T03:46:13.454Z,96.70
2023-02-28T03:48:45.988Z,96.90
2023-02-28T03:51:19.476Z,96.70
2023-02-28T03:53:54.899Z,96.50
2023-02-28T03:56:27.131Z,96.50
2023-02-28T03:59:00.724Z,96.40
2023-02-28T04:01:36.084Z,96.20
2023-02-28T04:04:04.704Z,96.30
2023-02-28T04:06:34.666Z,96.50
2023-02-28T04:09:05.488Z,96.30
2023-02-28T04:11:37.234Z,96.20
2023-02-28T04:14:09.937Z,96.20
2023-02-28T04:16:40.999Z,96.10
2023-02-28T04:19:11.098Z,96.00
2023-02-28T04:21:40.899Z,95.90
2023-02-28T04:24:16.652Z,95.90
2023-02-28T04:26:46.817Z,95.70
2023-02-28T04:29:21.952Z,96.20
2023-02-28T04:31:50.373Z,96.40
2023-02-28T04:34:19.849Z,96.30
2023-02-28T04:36:59.644Z,96.20
2023-02-28T04:39:38.740Z,96.10
2023-02-28T04:42:07.115Z,96.00
2023-02-28T04:44:35.152Z,95.80
2023-02-28T04:47:03.681Z,95.80
2023-02-28T04:49:31.638Z,95.30
2023-02-28T04:52:00.445Z,95.60
2023-02-28T04:54:29.201Z,95.60
2023-02-28T04:56:58.658Z,95.80
2023-02-28T04:59:27.669Z,95.90
2023-02-28T05:01:56.884Z,96.10
2023-02-28T05:04:27.634Z,96.40
2023-02-28T05:06:56.472Z,96.30
2023-02-28T05:09:28.465Z,96.50
2023-02-28T05:12:00.329Z,96.50
2023-02-28T05:14:28.890Z,96.40
2023-02-28T05:16:57.284Z,96.50
2023-02-28T05:19:25.337Z,96.60
2023-02-28T05:21:55.144Z,96.80
2023-02-28T05:24:24.937Z,96.60
2023-02-28T05:26:55.186Z,96.90
2023-02-28T05:29:24.903Z,96.90
2023-02-28T05:31:54.137Z,97.00
2023-02-28T05:34:24.667Z,97.00
2023-02-28T05:36:52.929Z,96.90
2023-02-28T05:39:20.987Z,96.90
2023-02-28T05:41:49.445Z,96.70
2023-02-28T05:44:17.974Z,96.80
2023-02-28T05:46:47.995Z,97.00
2023-02-28T05:49:17.170Z,96.70
2023-02-28T05:51:46.022Z,96.70
2023-02-28T05:54:14.422Z,96.90
2023-02-28T05:56:44.943Z,96.70
2023-02-28T05:59:13.105Z,96.70
2023-02-28T06:01:43.640Z,96.50
2023-02-28T06:04:29.415Z,96.80
2023-02-28T06:07:05.982Z,96.80
2023-02-28T06:09:34.005Z,96.40
2023-02-28T06:12:04.855Z,96.40
2023-02-28T06:14:34.437Z,96.20
2023-02-28T06:17:03.044Z,96.40
2023-02-28T06:19:33.185Z,96.80
2023-02-28T06:22:02.017Z,96.90
2023-02-28T06:24:31.231Z,96.90
2023-02-28T06:27:06.324Z,96.60
2023-02-28T06:29:35.528Z,96.70
2023-02-28T06:32:04.106Z,96.50
2023-02-28T06:34:35.692Z,96.60
2023-02-28T06:37:06.008Z,96.50
2023-02-28T06:39:35.066Z,96.60
2023-02-28T06:42:03.088Z,96.70
2023-02-28T06:44:36.099Z,96.60
2023-02-28T06:47:05.370Z,96.20
2023-02-28T06:49:36.751Z,96.30
2023-02-28T06:52:06.057Z,96.40
2023-02-28T06:54:34.395Z,96.20
2023-02-28T06:57:03.006Z,95.80
2023-02-28T06:59:31.032Z,95.80
2023-02-28T07:02:01.197Z,95.80
2023-02-28T07:04:30.586Z,96.00
2023-02-28T07:07:02.178Z,95.90
2023-02-28T07:09:32.993Z,96.20
2023-02-28T07:12:05.365Z,96.20
2023-02-28T07:14:33.444Z,96.10
2023-02-28T07:17:01.434Z,96.10
2023-02-28T07:19:30.060Z,96.20
2023-02-28T07:21:59.383Z,96.50
2023-02-28T07:24:29.449Z,96.40
2023-02-28T07:26:57.790Z,96.40
2023-02-28T07:29:25.801Z,96.40
2023-02-28T07:31:54.443Z,96.50
2023-02-28T07:34:23.892Z,96.60
2023-02-28T07:36:56.031Z,96.60
2023-02-28T07:39:26.186Z,96.70
2023-02-28T07:41:54.807Z,96.40
2023-02-28T07:44:27.589Z,96.80
2023-02-28T07:46:57.567Z,96.50
2023-02-28T07:49:25.711Z,96.40
2023-02-28T07:51:54.047Z,96.40
2023-02-28T07:54:22.070Z,96.20
2023-02-28T07:56:52.679Z,96.40
2023-02-28T07:59:20.699Z,96.70
2023-02-28T08:01:51.148Z,96.60
2023-02-28T08:04:19.974Z,96.30
2023-02-28T08:06:48.571Z,96.60
2023-02-28T08:09:16.554Z,96.30
2023-02-28T08:11:46.502Z,96.30
2023-02-28T08:14:15.922Z,96.30
2023-02-28T08:16:44.948Z,95.70
2023-02-28T08:19:13.346Z,95.20
2023-02-28T08:21:41.769Z,94.60
2023-02-28T08:24:10.148Z,94.90
2023-02-28T08:26:40.080Z,94.90
2023-02-28T08:29:08.238Z,94.90
2023-02-28T08:31:38.373Z,94.90
2023-02-28T08:34:08.178Z,94.80
2023-02-28T08:36:36.770Z,94.40
2023-02-28T08:39:06.044Z,94.30
2023-02-28T08:41:34.661Z,94.20
2023-02-28T08:44:02.684Z,94.20
2023-02-28T08:46:32.536Z,94.10
2023-02-28T08:49:02.756Z,94.00
2023-02-28T08:51:32.586Z,93.60
2023-02-28T08:54:03.241Z,93.50
2023-02-28T08:56:31.657Z,93.60
2023-02-28T08:58:59.765Z,93.60
2023-02-28T09:01:30.942Z,93.40
2023-02-28T09:04:02.844Z,93.60
2023-02-28T09:06:31.162Z,93.50
2023-02-28T09:09:02.480Z,93.00
2023-02-28T09:11:30.681Z,92.40
2023-02-28T09:14:01.123Z,91.60
2023-02-28T09:16:29.614Z,90.70
2023-02-28T09:18:57.740Z,90.90
2023-02-28T09:21:27.917Z,90.60
2023-02-28T09:23:58.784Z,90.50
2023-02-28T09:26:35.317Z,90.50
2023-02-28T09:29:12.134Z,90.30
2023-02-28T09:31:42.492Z,90.40
2023-02-28T09:34:10.858Z,92.80
2023-02-28T09:36:46.119Z,90.80
2023-02-28T09:39:16.781Z,90.40
2023-02-28T09:41:54.462Z,90.00
2023-02-28T09:44:30.180Z,90.20
2023-02-28T09:47:02.568Z,90.00
2023-02-28T09:49:40.188Z,90.50
2023-02-28T09:52:14.351Z,90.50
2023-02-28T09:54:44.161Z,90.20
2023-02-28T09:57:21.403Z,90.10
2023-02-28T10:00:08.095Z,88.50
2023-02-28T10:03:00.880Z,87.90
2023-02-28T10:05:34.954Z,87.00
2023-02-28T10:08:14.534Z,87.40
2023-02-28T10:10:45.295Z,85.10
2023-02-28T10:13:23.793Z,86.20
2023-02-28T10:15:58.968Z,86.20
2023-02-28T10:18:32.186Z,85.70
2023-02-28T10:21:01.651Z,84.40
2023-02-28T10:23:37.212Z,85.30
2023-02-28T10:26:13.681Z,83.90
2023-02-28T10:28:44.270Z,83.70
2023-02-28T10:31:18.303Z,83.80
2023-02-28T10:33:50.296Z,83.70
2023-02-28T10:36:24.123Z,82.70
2023-02-28T10:38:55.631Z,82.00
2023-02-28T10:41:35.610Z,80.70
2023-02-28T10:44:23.069Z,81.80
2023-02-28T10:46:53.569Z,81.80
2023-02-28T10:49:23.570Z,79.80
2023-02-28T10:51:58.206Z,78.30
2023-02-28T10:54:36.178Z,75.70
2023-02-28T10:57:18.613Z,73.70
2023-02-28T10:59:47.361Z,70.80
2023-02-28T11:02:35.783Z,69.70
2023-02-28T11:05:21.062Z,67.30
2023-02-28T11:07:55.212Z,65.90
2023-02-28T11:10:29.500Z,65.40
2023-02-28T11:13:02.187Z,68.10
2023-02-28T11:15:32.085Z,65.80
2023-02-28T11:20:55.058Z,66.40
2023-02-28T11:23:26.622Z,71.70
2023-02-28T11:26:00.268Z,71.20
2023-02-28T11:28:32.517Z,69.50
2023-02-28T11:31:08.188Z,70.50
2023-02-28T11:33:45.958Z,70.00
2023-02-28T11:36:20.255Z,68.70
2023-02-28T11:38:51.543Z,68.60
2023-02-28T11:41:50.022Z,68.30
2023-02-28T11:44:33.977Z,69.80
2023-02-28T11:47:08.210Z,70.80
2023-02-28T11:49:44.744Z,68.90
2023-02-28T11:52:23.529Z,70.50
2023-02-28T11:55:13.466Z,69.80
2023-02-28T11:57:59.174Z,68.40
2023-02-28T12:00:42.876Z,71.60
2023-02-28T12:03:27.224Z,69.60
2023-02-28T12:06:07.498Z,69.20
2023-02-28T12:08:50.935Z,68.20
2023-02-28T12:11:32.900Z,68.70
2023-02-28T12:14:21.223Z,67.40
2023-02-28T12:17:02.094Z,67.70
2023-02-28T12:19:39.177Z,67.70
2023-02-28T12:22:29.749Z,68.90
2023-02-28T12:25:42.281Z,67.50
2023-02-28T12:28:13.521Z,68.00
2023-02-28T12:30:53.383Z,66.80
2023-02-28T12:33:26.665Z,66.80
2023-02-28T12:36:01.324Z,66.10
2023-02-28T12:38:38.847Z,65.80
2023-02-28T12:41:13.975Z,64.50
2023-02-28T12:43:47.397Z,64.30
2023-02-28T12:46:22.547Z,64.10
2023-02-28T12:48:56.470Z,63.60
2023-02-28T12:51:26.791Z,63.20
2023-02-28T12:54:03.282Z,63.00
2023-02-28T12:56:40.760Z,63.30
2023-02-28T12:59:19.185Z,64.50
2023-02-28T13:02:04.679Z,63.80
2023-02-28T13:04:53.953Z,65.40
2023-02-28T13:07:54.829Z,64.70
2023-02-28T13:10:23.190Z,65.50
2023-02-28T13:13:07.803Z,64.20
2023-02-28T13:15:41.446Z,63.80
2023-02-28T13:18:35.631Z,62.00
2023-02-28T13:21:07.926Z,62.00
2023-02-28T13:24:02.334Z,62.70
2023-02-28T13:27:12.805Z,62.50
2023-02-28T13:29:43.357Z,62.00
2023-02-28T13:32:34.217Z,60.40
2023-02-28T13:35:42.230Z,59.30
2023-02-28T13:38:26.501Z,56.90
2023-02-28T13:40:54.985Z,53.40
2023-02-28T13:43:35.742Z,53.80
2023-02-28T13:46:15.131Z,51.50
2023-02-28T13:48:43.475Z,50.90
2023-02-28T13:51:42.202Z,50.00
2023-02-28T13:54:31.572Z,49.00
2023-02-28T13:57:12.668Z,48.90
2023-02-28T13:59:52.370Z,47.70
2023-02-28T14:02:53.834Z,46.50
2023-02-28T14:05:26.780Z,45.90
2023-02-28T14:07:57.933Z,45.40
2023-02-28T14:10:32.839Z,45.60
2023-02-28T14:13:14.147Z,46.00
2023-02-28T14:15:47.091Z,46.00
2023-02-28T14:18:27.078Z,46.00
2023-02-28T14:21:00.439Z,45.70
2023-02-28T14:23:57.750Z,45.60
2023-02-28T14:26:53.788Z,45.50
2023-02-28T14:29:44.155Z,45.20
2023-02-28T14:32:20.737Z,44.30
2023-02-28T14:34:55.441Z,44.70
2023-02-28T14:37:30.115Z,43.80
2023-02-28T14:39:59.412Z,44.20
2023-02-28T14:42:34.378Z,44.70
2023-02-28T14:45:02.545Z,44.90
2023-02-28T14:47:34.652Z,44.90
2023-02-28T14:50:05.884Z,44.70
2023-02-28T14:52:37.085Z,45.10
2023-02-28T14:55:12.260Z,45.40
2023-02-28T14:57:52.304Z,46.00
2023-02-28T15:00:26.171Z,46.30
2023-02-28T15:02:56.594Z,47.00
2023-02-28T15:05:30.773Z,47.00
2023-02-28T15:08:14.775Z,47.30
2023-02-28T15:10:46.752Z,48.10
2023-02-28T15:13:17.100Z,48.50
2023-02-28T15:16:05.436Z,48.10
2023-02-28T15:18:43.182Z,48.20
2023-02-28T15:21:19.159Z,48.10
2023-02-28T15:23:52.792Z,48.80
2023-02-28T15:26:27.343Z,48.90
2023-02-28T15:29:02.568Z,49.00
2023-02-28T15:31:50.213Z,49.40
2023-02-28T15:34:28.536Z,49.70
2023-02-28T15:37:02.208Z,49.60
2023-02-28T15:39:31.224Z,50.60
2023-02-28T15:42:19.543Z,50.60
2023-02-28T15:44:49.226Z,50.60
2023-02-28T15:47:20.794Z,50.50
2023-02-28T15:49:52.958Z,51.00
2023-02-28T15:52:24.090Z,51.00
2023-02-28T15:54:52.445Z,51.40
2023-02-28T15:57:24.537Z,51.70
2023-02-28T15:59:57.611Z,52.10
2023-02-28T16:02:33.813Z,53.00
2023-02-28T16:05:19.093Z,53.00
2023-02-28T16:07:49.520Z,52.60
2023-02-28T16:10:17.827Z,53.20
2023-02-28T16:12:47.337Z,53.40
2023-02-28T16:15:25.572Z,53.10
2023-02-28T16:17:54.329Z,54.10
2023-02-28T16:20:24.510Z,54.00
2023-02-28T16:22:53.205Z,54.40
2023-02-28T16:25:25.444Z,54.90
2023-02-28T16:27:56.121Z,55.00
2023-02-28T16:30:33.671Z,55.00
2023-02-28T16:33:02.462Z,55.60
2023-02-28T16:35:30.493Z,55.90
2023-02-28T16:37:58.468Z,55.90
2023-02-28T16:40:29.897Z,56.50
2023-02-28T16:43:01.852Z,56.70
2023-02-28T16:45:32.409Z,56.80
2023-02-28T16:48:00.462Z,56.80
2023-02-28T16:50:30.897Z,57.10
2023-02-28T16:52:58.925Z,56.90
2023-02-28T16:55:28.795Z,56.70
2023-02-28T16:57:58.803Z,56.70
2023-02-28T17:00:28.663Z,57.00
2023-02-28T17:02:59.983Z,57.20
2023-02-28T17:05:35.893Z,57.40
2023-02-28T17:08:03.997Z,57.20
2023-02-28T17:10:32.108Z,58.10
2023-02-28T17:13:14.170Z,57.90
2023-02-28T17:15:47.407Z,58.10
2023-02-28T17:18:20.512Z,58.40
2023-02-28T17:20:49.654Z,58.50
2023-02-28T17:23:17.837Z,58.60
2023-02-28T17:25:57.707Z,58.60
2023-02-28T17:28:26.284Z,58.70
2023-02-28T17:30:54.302Z,58.40
2023-02-28T17:33:26.345Z,58.60
2023-02-28T17:35:54.970Z,58.70
2023-02-28T17:38:23.768Z,59.10
2023-02-28T17:40:58.335Z,59.20
2023-02-28T17:43:26.917Z,59.60
2023-02-28T17:45:55.998Z,59.90
2023-02-28T17:48:25.476Z,60.40
2023-02-28T17:50:54.799Z,60.60
2023-02-28T17:53:23.965Z,60.50
2023-02-28T17:55:52.022Z,61.50
2023-02-28T17:58:20.451Z,61.00
2023-02-28T18:00:54.464Z,61.00
2023-02-28T18:03:22.793Z,61.00
2023-02-28T18:05:52.834Z,61.50
2023-02-28T18:08:21.506Z,61.50
2023-02-28T18:10:50.415Z,61.80
2023-02-28T18:13:18.422Z,61.50
2023-02-28T18:15:48.377Z,61.30
2023-02-28T18:18:16.995Z,61.40
2023-02-28T18:20:45.750Z,61.40
2023-02-28T18:23:16.505Z,61.60
2023-02-28T18:25:44.476Z,62.20
2023-02-28T18:28:13.441Z,62.30
2023-02-28T18:30:41.453Z,62.20
2023-02-28T18:33:09.482Z,62.30
2023-02-28T18:35:39.254Z,62.50
2023-02-28T18:38:09.862Z,62.40
2023-02-28T18:40:39.419Z,62.40
2023-02-28T18:43:08.464Z,64.30
2023-02-28T18:45:38.422Z,63.40
2023-02-28T18:48:07.007Z,63.20
2023-02-28T18:50:35.012Z,63.30
2023-02-28T18:53:03.562Z,64.80
2023-02-28T18:55:32.838Z,65.00
2023-02-28T18:58:02.776Z,64.10
2023-02-28T19:00:31.492Z,64.00
2023-02-28T19:02:59.589Z,65.10
2023-02-28T19:05:27.984Z,65.40
2023-02-28T19:07:56.477Z,65.60
2023-02-28T19:10:24.522Z,65.80
2023-02-28T19:12:53.001Z,66.20
2023-02-28T19:15:23.584Z,64.70
2023-02-28T19:17:51.646Z,64.50
2023-02-28T19:20:19.936Z,64.60
2023-02-28T19:22:47.956Z,65.90
2023-02-28T19:25:17.180Z,64.90
2023-02-28T19:27:45.596Z,66.20
2023-02-28T19:30:14.123Z,66.70
2023-02-28T19:32:46.470Z,66.60
2023-02-28T19:35:14.692Z,66.70
2023-02-28T19:37:44.191Z,67.30
2023-02-28T19:40:14.279Z,67.70
2023-02-28T19:42:42.286Z,68.10
2023-02-28T19:45:14.708Z,68.40
2023-02-28T19:47:45.051Z,68.70
2023-02-28T19:50:13.146Z,68.90
2023-02-28T19:52:46.443Z,70.00
2023-02-28T19:55:14.604Z,69.10
2023-02-28T19:57:43.393Z,69.00
2023-02-28T20:00:15.014Z,68.80
2023-02-28T20:02:45.234Z,68.70
2023-02-28T20:05:13.203Z,68.70
2023-02-28T20:07:41.340Z,69.00
2023-02-28T20:10:11.139Z,69.00
2023-02-28T20:12:39.745Z,68.80
2023-02-28T20:15:09.201Z,68.90
2023-02-28T20:17:37.708Z,69.00
2023-02-28T20:20:11.839Z,68.90
2023-02-28T20:22:42.494Z,69.10
2023-02-28T20:25:11.982Z,69.30
2023-02-28T20:27:40.204Z,69.30
2023-02-28T20:30:10.815Z,69.60
2023-02-28T20:32:39.770Z,69.70
2023-02-28T20:35:11.818Z,70.10
2023-02-28T20:37:40.456Z,70.40
2023-02-28T20:40:11.928Z,70.70
2023-02-28T20:42:39.989Z,70.70
2023-02-28T20:45:09.964Z,70.80
2023-02-28T20:47:38.421Z,70.40
2023-02-28T20:50:07.515Z,70.90
2023-02-28T20:52:37.240Z,71.00
2023-02-28T20:55:06.336Z,72.00
2023-02-28T20:57:36.761Z,71.10
2023-02-28T21:00:09.001Z,71.10
2023-02-28T21:02:37.304Z,71.70
2023-02-28T21:05:05.844Z,71.50
2023-02-28T21:07:34.682Z,71.60
2023-02-28T21:10:04.317Z,72.20
2023-02-28T21:12:35.277Z,72.20
2023-02-28T21:15:03.381Z,72.60
2023-02-28T21:17:31.516Z,72.70
2023-02-28T21:19:59.996Z,72.80
2023-02-28T21:22:28.117Z,73.20
2023-02-28T21:24:56.167Z,73.20
2023-02-28T21:27:26.495Z,72.80
2023-02-28T21:29:54.858Z,72.90
2023-02-28T21:32:24.554Z,72.80
2023-02-28T21:34:53.255Z,72.90
2023-02-28T21:37:21.462Z,72.80
2023-02-28T21:39:49.616Z,73.10
2023-02-28T21:42:17.941Z,73.10
2023-02-28T21:44:47.574Z,72.90
2023-02-28T21:47:16.307Z,73.30
2023-02-28T21:49:44.836Z,73.20
2023-02-28T21:52:12.854Z,73.30
2023-02-28T21:54:40.907Z,73.50
2023-02-28T21:57:09.441Z,73.80
2023-02-28T21:59:37.569Z,74.00
2023-02-28T22:02:10.574Z,74.30
2023-02-28T22:04:40.551Z,74.10
2023-02-28T22:07:08.575Z,74.30
2023-02-28T22:09:37.088Z,74.10
2023-02-28T22:12:08.353Z,74.00
2023-02-28T22:14:37.080Z,74.60
2023-02-28T22:17:05.199Z,75.00
2023-02-28T22:19:35.918Z,75.00
2023-02-28T22:22:03.948Z,75.30
2023-02-28T22:24:32.158Z,75.50
2023-02-28T22:27:00.755Z,75.10
2023-02-28T22:29:29.549Z,75.50
2023-02-28T22:31:58.022Z,75.30
2023-02-28T22:34:26.076Z,75.80
2023-02-28T22:36:55.383Z,75.80
2023-02-28T22:39:23.372Z,76.00
2023-02-28T22:41:52.500Z,76.20
2023-02-28T22:44:22.212Z,76.50
2023-02-28T22:46:54.884Z,76.30
2023-02-28T22:49:23.065Z,76.60
2023-02-28T22:51:51.110Z,76.70
2023-02-28T22:54:21.516Z,77.30
2023-02-28T22:56:49.515Z,77.70
2023-02-28T22:59:19.696Z,77.70
2023-02-28T23:01:47.776Z,78.00
2023-02-28T23:04:17.555Z,78.20
2023-02-28T23:06:46.077Z,78.50
2023-02-28T23:09:17.953Z,78.50
2023-02-28T23:11:49.736Z,78.70
2023-02-28T23:14:19.168Z,78.30
2023-02-28T23:16:50.598Z,78.20
2023-02-28T23:19:21.438Z,78.30
2023-02-28T23:21:50.590Z,78.90
2023-02-28T23:24:21.853Z,78.70
2023-02-28T23:26:55.715Z,79.20
2023-02-28T23:29:26.504Z,78.70
2023-02-28T23:31:55.516Z,79.00
2023-02-28T23:34:32.781Z,79.00
2023-02-28T23:37:03.277Z,79.50
2023-02-28T23:39:32.650Z,79.60
2023-02-28T23:42:03.547Z,79.70
2023-02-28T23:44:32.079Z,79.90
2023-02-28T23:47:00.713Z,79.90
2023-02-28T23:49:29.718Z,79.80
2023-02-28T23:51:57.819Z,80.30
2023-02-28T23:54:25.973Z,80.40
2023-02-28T23:56:54.522Z,80.60
2023-02-28T23:59:24.064Z,80.80
